sensor_id;sensor_type;location;lat;lon;timestamp;P1;durP1;ratioP1;P2;durP2;ratioP2
25982;SDS011;13773;48.868;10.730;2023-10-09T00:01:04;14.70;;;7.43;;
25982;SDS011;13773;48.868;10.730;2023-10-09T00:03:38;15.97;;;7.67;;
25982;SDS011;13773;48.868;10.730;2023-10-09T00:06:06;13.90;;;7.00;;
25982;SDS011;13773;48.868;10.730;2023-10-09T00:08:32;12.93;;;6.93;;
25982;SDS011;13773;48.868;10.730;2023-10-09T00:11:00;13.87;;;7.37;;
25982;SDS011;13773;48.868;10.730;2023-10-09T00:13:52;13.60;;;6.87;;
25982;SDS011;13773;48.868;10.730;2023-10-09T00:16:23;11.03;;;6.90;;
25982;SDS011;13773;48.868;10.730;2023-10-09T00:19:03;10.63;;;6.63;;
25982;SDS011;13773;48.868;10.730;2023-10-09T00:21:41;10.50;;;6.63;;
25982;SDS011;13773;48.868;10.730;2023-10-09T00:24:14;10.70;;;6.80;;
25982;SDS011;13773;48.868;10.730;2023-10-09T00:26:51;12.83;;;6.33;;
25982;SDS011;13773;48.868;10.730;2023-10-09T00:29:20;10.80;;;6.20;;
25982;SDS011;13773;48.868;10.730;2023-10-09T00:34:16;14.20;;;7.33;;
25982;SDS011;13773;48.868;10.730;2023-10-09T00:36:46;9.70;;;7.13;;
25982;SDS011;13773;48.868;10.730;2023-10-09T00:39:19;16.97;;;6.83;;
25982;SDS011;13773;48.868;10.730;2023-10-09T00:42:03;15.00;;;7.97;;
25982;SDS011;13773;48.868;10.730;2023-10-09T00:44:31;12.30;;;7.47;;
25982;SDS011;13773;48.868;10.730;2023-10-09T00:47:13;13.77;;;7.50;;
25982;SDS011;13773;48.868;10.730;2023-10-09T00:49:51;13.73;;;7.53;;
25982;SDS011;13773;48.868;10.730;2023-10-09T00:52:28;12.23;;;6.90;;
25982;SDS011;13773;48.868;10.730;2023-10-09T00:55:08;12.10;;;6.80;;
25982;SDS011;13773;48.868;10.730;2023-10-09T00:57:42;11.10;;;7.10;;
25982;SDS011;13773;48.868;10.730;2023-10-09T01:00:21;13.30;;;7.20;;
25982;SDS011;13773;48.868;10.730;2023-10-09T01:02:57;16.50;;;7.00;;
25982;SDS011;13773;48.868;10.730;2023-10-09T01:05:38;11.23;;;6.50;;
25982;SDS011;13773;48.868;10.730;2023-10-09T01:08:19;11.40;;;6.83;;
25982;SDS011;13773;48.868;10.730;2023-10-09T01:13:38;12.50;;;7.27;;
25982;SDS011;13773;48.868;10.730;2023-10-09T01:16:18;11.23;;;6.40;;
25982;SDS011;13773;48.868;10.730;2023-10-09T01:18:49;12.03;;;6.33;;
25982;SDS011;13773;48.868;10.730;2023-10-09T01:21:22;11.40;;;6.70;;
25982;SDS011;13773;48.868;10.730;2023-10-09T01:23:52;13.07;;;6.60;;
25982;SDS011;13773;48.868;10.730;2023-10-09T01:26:36;15.40;;;6.30;;
25982;SDS011;13773;48.868;10.730;2023-10-09T01:29:18;10.37;;;6.40;;
25982;SDS011;13773;48.868;10.730;2023-10-09T01:31:49;9.53;;;5.50;;
25982;SDS011;13773;48.868;10.730;2023-10-09T01:34:25;10.13;;;6.00;;
25982;SDS011;13773;48.868;10.730;2023-10-09T01:37:09;11.87;;;6.50;;
25982;SDS011;13773;48.868;10.730;2023-10-09T01:39:43;13.23;;;6.23;;
25982;SDS011;13773;48.868;10.730;2023-10-09T01:42:13;11.03;;;5.93;;
25982;SDS011;13773;48.868;10.730;2023-10-09T01:44:50;9.03;;;6.20;;
25982;SDS011;13773;48.868;10.730;2023-10-09T01:47:15;10.87;;;5.53;;
25982;SDS011;13773;48.868;10.730;2023-10-09T01:49:43;10.30;;;6.20;;
25982;SDS011;13773;48.868;10.730;2023-10-09T01:52:14;10.37;;;5.67;;
25982;SDS011;13773;48.868;10.730;2023-10-09T01:54:46;12.23;;;6.00;;
25982;SDS011;13773;48.868;10.730;2023-10-09T01:57:17;10.73;;;5.40;;
25982;SDS011;13773;48.868;10.730;2023-10-09T01:59:50;10.73;;;4.87;;
25982;SDS011;13773;48.868;10.730;2023-10-09T02:02:18;11.07;;;5.37;;
25982;SDS011;13773;48.868;10.730;2023-10-09T02:05:00;12.63;;;6.17;;
25982;SDS011;13773;48.868;10.730;2023-10-09T02:07:50;10.60;;;5.17;;
25982;SDS011;13773;48.868;10.730;2023-10-09T02:10:17;15.20;;;5.87;;
25982;SDS011;13773;48.868;10.730;2023-10-09T02:12:50;11.73;;;5.83;;
25982;SDS011;13773;48.868;10.730;2023-10-09T02:15:23;12.30;;;5.23;;
25982;SDS011;13773;48.868;10.730;2023-10-09T02:18:08;10.60;;;4.93;;
25982;SDS011;13773;48.868;10.730;2023-10-09T02:20:47;10.20;;;4.97;;
25982;SDS011;13773;48.868;10.730;2023-10-09T02:23:26;9.77;;;5.37;;
25982;SDS011;13773;48.868;10.730;2023-10-09T02:26:03;9.57;;;4.97;;
25982;SDS011;13773;48.868;10.730;2023-10-09T02:28:31;11.40;;;5.03;;
25982;SDS011;13773;48.868;10.730;2023-10-09T02:31:00;13.27;;;5.23;;
25982;SDS011;13773;48.868;10.730;2023-10-09T02:33:35;10.37;;;5.47;;
25982;SDS011;13773;48.868;10.730;2023-10-09T02:36:10;10.33;;;4.67;;
25982;SDS011;13773;48.868;10.730;2023-10-09T02:38:36;10.10;;;4.80;;
25982;SDS011;13773;48.868;10.730;2023-10-09T02:41:03;10.40;;;4.83;;
25982;SDS011;13773;48.868;10.730;2023-10-09T02:43:29;10.93;;;4.73;;
25982;SDS011;13773;48.868;10.730;2023-10-09T02:46:00;12.77;;;4.90;;
25982;SDS011;13773;48.868;10.730;2023-10-09T02:48:54;13.13;;;4.70;;
25982;SDS011;13773;48.868;10.730;2023-10-09T02:51:21;12.70;;;4.70;;
25982;SDS011;13773;48.868;10.730;2023-10-09T02:54:01;14.53;;;4.40;;
25982;SDS011;13773;48.868;10.730;2023-10-09T02:56:51;12.70;;;4.93;;
25982;SDS011;13773;48.868;10.730;2023-10-09T02:59:22;13.07;;;5.10;;
25982;SDS011;13773;48.868;10.730;2023-10-09T03:01:48;14.20;;;6.07;;
25982;SDS011;13773;48.868;10.730;2023-10-09T03:04:14;11.93;;;4.80;;
25982;SDS011;13773;48.868;10.730;2023-10-09T03:06:40;9.93;;;4.37;;
25982;SDS011;13773;48.868;10.730;2023-10-09T03:09:19;11.10;;;4.37;;
25982;SDS011;13773;48.868;10.730;2023-10-09T03:11:53;10.50;;;4.77;;
25982;SDS011;13773;48.868;10.730;2023-10-09T03:14:25;14.83;;;4.67;;
25982;SDS011;13773;48.868;10.730;2023-10-09T03:16:54;11.73;;;4.50;;
25982;SDS011;13773;48.868;10.730;2023-10-09T03:19:25;9.47;;;4.60;;
25982;SDS011;13773;48.868;10.730;2023-10-09T03:21:51;9.53;;;5.17;;
25982;SDS011;13773;48.868;10.730;2023-10-09T03:24:17;14.07;;;5.27;;
25982;SDS011;13773;48.868;10.730;2023-10-09T03:26:45;15.00;;;4.80;;
25982;SDS011;13773;48.868;10.730;2023-10-09T03:29:10;13.67;;;4.97;;
25982;SDS011;13773;48.868;10.730;2023-10-09T03:31:37;12.77;;;5.90;;
25982;SDS011;13773;48.868;10.730;2023-10-09T03:34:03;11.77;;;4.40;;
25982;SDS011;13773;48.868;10.730;2023-10-09T03:36:29;17.13;;;5.17;;
25982;SDS011;13773;48.868;10.730;2023-10-09T03:39:03;15.63;;;4.60;;
25982;SDS011;13773;48.868;10.730;2023-10-09T03:41:43;17.67;;;5.03;;
25982;SDS011;13773;48.868;10.730;2023-10-09T03:44:12;10.47;;;4.27;;
25982;SDS011;13773;48.868;10.730;2023-10-09T03:46:43;11.27;;;4.57;;
25982;SDS011;13773;48.868;10.730;2023-10-09T03:49:10;15.63;;;5.30;;
25982;SDS011;13773;48.868;10.730;2023-10-09T03:51:37;12.67;;;5.10;;
25982;SDS011;13773;48.868;10.730;2023-10-09T03:54:02;14.67;;;4.80;;
25982;SDS011;13773;48.868;10.730;2023-10-09T03:56:33;14.53;;;5.23;;
25982;SDS011;13773;48.868;10.730;2023-10-09T03:59:00;19.43;;;5.00;;
25982;SDS011;13773;48.868;10.730;2023-10-09T04:01:27;7.77;;;5.00;;
25982;SDS011;13773;48.868;10.730;2023-10-09T04:03:56;12.07;;;4.97;;
25982;SDS011;13773;48.868;10.730;2023-10-09T04:06:26;11.90;;;5.07;;
25982;SDS011;13773;48.868;10.730;2023-10-09T04:08:57;11.83;;;5.17;;
25982;SDS011;13773;48.868;10.730;2023-10-09T04:11:56;16.60;;;5.13;;
25982;SDS011;13773;48.868;10.730;2023-10-09T04:14:37;12.07;;;5.23;;
25982;SDS011;13773;48.868;10.730;2023-10-09T04:17:15;14.27;;;5.60;;
25982;SDS011;13773;48.868;10.730;2023-10-09T04:20:00;18.37;;;5.13;;
25982;SDS011;13773;48.868;10.730;2023-10-09T04:22:59;14.90;;;5.20;;
25982;SDS011;13773;48.868;10.730;2023-10-09T04:25:29;13.47;;;4.47;;
25982;SDS011;13773;48.868;10.730;2023-10-09T04:28:06;13.40;;;5.20;;
25982;SDS011;13773;48.868;10.730;2023-10-09T04:30:47;12.80;;;5.93;;
25982;SDS011;13773;48.868;10.730;2023-10-09T04:33:18;12.57;;;4.33;;
25982;SDS011;13773;48.868;10.730;2023-10-09T04:36:08;13.37;;;4.97;;
25982;SDS011;13773;48.868;10.730;2023-10-09T04:38:49;12.80;;;4.70;;
25982;SDS011;13773;48.868;10.730;2023-10-09T04:41:28;14.70;;;4.53;;
25982;SDS011;13773;48.868;10.730;2023-10-09T04:43:58;16.80;;;5.00;;
25982;SDS011;13773;48.868;10.730;2023-10-09T04:46:43;11.33;;;4.63;;
25982;SDS011;13773;48.868;10.730;2023-10-09T04:49:10;13.80;;;5.10;;
25982;SDS011;13773;48.868;10.730;2023-10-09T04:52:02;11.80;;;4.50;;
25982;SDS011;13773;48.868;10.730;2023-10-09T04:54:31;18.30;;;4.87;;
25982;SDS011;13773;48.868;10.730;2023-10-09T04:57:16;14.90;;;5.00;;
25982;SDS011;13773;48.868;10.730;2023-10-09T04:59:43;14.00;;;4.90;;
25982;SDS011;13773;48.868;10.730;2023-10-09T05:02:13;15.00;;;5.40;;
25982;SDS011;13773;48.868;10.730;2023-10-09T05:04:46;21.70;;;5.50;;
25982;SDS011;13773;48.868;10.730;2023-10-09T05:07:16;17.37;;;5.07;;
25982;SDS011;13773;48.868;10.730;2023-10-09T05:10:10;18.17;;;4.77;;
25982;SDS011;13773;48.868;10.730;2023-10-09T05:12:43;14.20;;;5.00;;
25982;SDS011;13773;48.868;10.730;2023-10-09T05:15:13;16.07;;;4.43;;
25982;SDS011;13773;48.868;10.730;2023-10-09T05:17:39;20.03;;;4.90;;
25982;SDS011;13773;48.868;10.730;2023-10-09T05:20:10;20.63;;;6.33;;
25982;SDS011;13773;48.868;10.730;2023-10-09T05:22:51;13.50;;;5.40;;
25982;SDS011;13773;48.868;10.730;2023-10-09T05:25:26;19.93;;;5.60;;
25982;SDS011;13773;48.868;10.730;2023-10-09T05:28:11;16.43;;;4.73;;
25982;SDS011;13773;48.868;10.730;2023-10-09T05:31:06;22.20;;;5.50;;
25982;SDS011;13773;48.868;10.730;2023-10-09T05:33:35;19.93;;;4.77;;
25982;SDS011;13773;48.868;10.730;2023-10-09T05:36:04;16.73;;;4.80;;
25982;SDS011;13773;48.868;10.730;2023-10-09T05:38:42;13.70;;;4.63;;
25982;SDS011;13773;48.868;10.730;2023-10-09T05:41:27;16.53;;;5.13;;
25982;SDS011;13773;48.868;10.730;2023-10-09T05:44:13;14.83;;;5.03;;
25982;SDS011;13773;48.868;10.730;2023-10-09T05:46:57;19.13;;;5.27;;
25982;SDS011;13773;48.868;10.730;2023-10-09T05:49:41;13.63;;;4.30;;
25982;SDS011;13773;48.868;10.730;2023-10-09T05:52:21;16.53;;;4.80;;
25982;SDS011;13773;48.868;10.730;2023-10-09T05:55:07;16.40;;;5.13;;
25982;SDS011;13773;48.868;10.730;2023-10-09T05:57:52;11.83;;;4.60;;
25982;SDS011;13773;48.868;10.730;2023-10-09T06:00:25;17.37;;;5.57;;
25982;SDS011;13773;48.868;10.730;2023-10-09T06:03:10;10.83;;;4.43;;
25982;SDS011;13773;48.868;10.730;2023-10-09T06:08:21;14.20;;;4.83;;
25982;SDS011;13773;48.868;10.730;2023-10-09T06:11:17;13.27;;;4.60;;
25982;SDS011;13773;48.868;10.730;2023-10-09T06:13:59;15.03;;;5.00;;
25982;SDS011;13773;48.868;10.730;2023-10-09T06:16:32;18.13;;;4.80;;
25982;SDS011;13773;48.868;10.730;2023-10-09T06:19:08;18.43;;;4.97;;
25982;SDS011;13773;48.868;10.730;2023-10-09T06:21:51;16.50;;;5.37;;
25982;SDS011;13773;48.868;10.730;2023-10-09T06:24:39;15.40;;;4.87;;
25982;SDS011;13773;48.868;10.730;2023-10-09T06:27:20;13.17;;;4.43;;
25982;SDS011;13773;48.868;10.730;2023-10-09T06:29:51;13.30;;;4.80;;
25982;SDS011;13773;48.868;10.730;2023-10-09T06:32:37;17.17;;;5.30;;
25982;SDS011;13773;48.868;10.730;2023-10-09T06:35:02;20.57;;;5.10;;
25982;SDS011;13773;48.868;10.730;2023-10-09T06:37:50;14.93;;;4.30;;
25982;SDS011;13773;48.868;10.730;2023-10-09T06:43:19;16.50;;;4.47;;
25982;SDS011;13773;48.868;10.730;2023-10-09T06:48:23;14.90;;;4.97;;
25982;SDS011;13773;48.868;10.730;2023-10-09T06:51:04;12.17;;;4.37;;
25982;SDS011;13773;48.868;10.730;2023-10-09T06:53:53;14.30;;;4.23;;
25982;SDS011;13773;48.868;10.730;2023-10-09T06:59:11;13.93;;;4.50;;
25982;SDS011;13773;48.868;10.730;2023-10-09T07:01:49;12.77;;;4.40;;
25982;SDS011;13773;48.868;10.730;2023-10-09T07:04:36;18.77;;;5.07;;
25982;SDS011;13773;48.868;10.730;2023-10-09T07:07:02;12.47;;;5.30;;
25982;SDS011;13773;48.868;10.730;2023-10-09T07:09:34;13.33;;;4.90;;
25982;SDS011;13773;48.868;10.730;2023-10-09T07:12:19;11.93;;;4.30;;
25982;SDS011;13773;48.868;10.730;2023-10-09T07:14:52;13.57;;;4.53;;
25982;SDS011;13773;48.868;10.730;2023-10-09T07:17:26;18.17;;;5.03;;
25982;SDS011;13773;48.868;10.730;2023-10-09T07:19:58;13.80;;;4.53;;
25982;SDS011;13773;48.868;10.730;2023-10-09T07:22:43;15.13;;;5.13;;
25982;SDS011;13773;48.868;10.730;2023-10-09T07:25:18;16.23;;;4.33;;
25982;SDS011;13773;48.868;10.730;2023-10-09T07:28:06;11.30;;;4.60;;
25982;SDS011;13773;48.868;10.730;2023-10-09T07:30:44;20.97;;;5.93;;
25982;SDS011;13773;48.868;10.730;2023-10-09T07:33:11;17.67;;;4.53;;
25982;SDS011;13773;48.868;10.730;2023-10-09T07:35:38;16.17;;;4.57;;
25982;SDS011;13773;48.868;10.730;2023-10-09T07:38:17;14.20;;;4.80;;
25982;SDS011;13773;48.868;10.730;2023-10-09T07:41:00;14.87;;;4.93;;
25982;SDS011;13773;48.868;10.730;2023-10-09T07:46:04;17.83;;;4.73;;
25982;SDS011;13773;48.868;10.730;2023-10-09T07:48:30;13.47;;;4.43;;
25982;SDS011;13773;48.868;10.730;2023-10-09T07:51:20;16.87;;;4.93;;
25982;SDS011;13773;48.868;10.730;2023-10-09T07:53:56;12.40;;;3.87;;
25982;SDS011;13773;48.868;10.730;2023-10-09T07:56:25;11.83;;;4.47;;
25982;SDS011;13773;48.868;10.730;2023-10-09T07:58:58;15.60;;;4.97;;
25982;SDS011;13773;48.868;10.730;2023-10-09T08:01:25;11.33;;;4.50;;
25982;SDS011;13773;48.868;10.730;2023-10-09T08:03:51;19.07;;;4.50;;
25982;SDS011;13773;48.868;10.730;2023-10-09T08:06:27;12.47;;;4.27;;
25982;SDS011;13773;48.868;10.730;2023-10-09T08:09:08;14.37;;;5.50;;
25982;SDS011;13773;48.868;10.730;2023-10-09T08:11:37;11.83;;;5.00;;
25982;SDS011;13773;48.868;10.730;2023-10-09T08:14:08;15.00;;;5.10;;
25982;SDS011;13773;48.868;10.730;2023-10-09T08:16:47;18.17;;;4.80;;
25982;SDS011;13773;48.868;10.730;2023-10-09T08:19:14;13.60;;;4.77;;
25982;SDS011;13773;48.868;10.730;2023-10-09T08:21:57;14.57;;;5.03;;
25982;SDS011;13773;48.868;10.730;2023-10-09T08:24:42;14.07;;;4.37;;
25982;SDS011;13773;48.868;10.730;2023-10-09T08:27:20;19.73;;;5.53;;
25982;SDS011;13773;48.868;10.730;2023-10-09T08:29:55;11.90;;;4.30;;
25982;SDS011;13773;48.868;10.730;2023-10-09T08:32:42;12.97;;;4.33;;
25982;SDS011;13773;48.868;10.730;2023-10-09T08:35:50;15.13;;;4.70;;
25982;SDS011;13773;48.868;10.730;2023-10-09T08:38:20;9.50;;;4.27;;
25982;SDS011;13773;48.868;10.730;2023-10-09T08:40:48;14.10;;;4.37;;
25982;SDS011;13773;48.868;10.730;2023-10-09T08:43:23;20.17;;;6.30;;
25982;SDS011;13773;48.868;10.730;2023-10-09T08:45:49;14.57;;;4.80;;
25982;SDS011;13773;48.868;10.730;2023-10-09T08:48:22;15.80;;;4.80;;
25982;SDS011;13773;48.868;10.730;2023-10-09T08:50:51;14.33;;;5.90;;
25982;SDS011;13773;48.868;10.730;2023-10-09T08:53:20;15.67;;;4.53;;
25982;SDS011;13773;48.868;10.730;2023-10-09T08:55:52;18.93;;;4.60;;
25982;SDS011;13773;48.868;10.730;2023-10-09T08:58:18;13.93;;;4.57;;
25982;SDS011;13773;48.868;10.730;2023-10-09T09:00:45;13.93;;;5.17;;
25982;SDS011;13773;48.868;10.730;2023-10-09T09:03:19;14.70;;;5.17;;
25982;SDS011;13773;48.868;10.730;2023-10-09T09:05:58;12.73;;;5.37;;
25982;SDS011;13773;48.868;10.730;2023-10-09T09:08:28;16.00;;;5.23;;
25982;SDS011;13773;48.868;10.730;2023-10-09T09:11:04;15.03;;;5.60;;
25982;SDS011;13773;48.868;10.730;2023-10-09T09:16:29;14.63;;;6.00;;
25982;SDS011;13773;48.868;10.730;2023-10-09T09:18:56;17.30;;;5.00;;
25982;SDS011;13773;48.868;10.730;2023-10-09T09:21:38;12.93;;;4.20;;
25982;SDS011;13773;48.868;10.730;2023-10-09T09:24:09;11.37;;;4.57;;
25982;SDS011;13773;48.868;10.730;2023-10-09T09:26:51;15.20;;;5.07;;
25982;SDS011;13773;48.868;10.730;2023-10-09T09:32:04;13.73;;;4.83;;
25982;SDS011;13773;48.868;10.730;2023-10-09T09:34:45;14.30;;;5.07;;
25982;SDS011;13773;48.868;10.730;2023-10-09T09:37:20;18.00;;;5.33;;
25982;SDS011;13773;48.868;10.730;2023-10-09T09:39:50;15.33;;;4.57;;
25982;SDS011;13773;48.868;10.730;2023-10-09T09:42:17;17.37;;;5.10;;
25982;SDS011;13773;48.868;10.730;2023-10-09T09:44:49;14.67;;;4.80;;
25982;SDS011;13773;48.868;10.730;2023-10-09T09:47:17;17.40;;;4.60;;
25982;SDS011;13773;48.868;10.730;2023-10-09T09:49:52;11.33;;;4.63;;
25982;SDS011;13773;48.868;10.730;2023-10-09T09:52:25;22.00;;;5.30;;
25982;SDS011;13773;48.868;10.730;2023-10-09T09:54:55;16.93;;;4.97;;
25982;SDS011;13773;48.868;10.730;2023-10-09T09:57:23;19.23;;;4.97;;
25982;SDS011;13773;48.868;10.730;2023-10-09T09:59:53;13.30;;;4.17;;
25982;SDS011;13773;48.868;10.730;2023-10-09T10:02:23;15.37;;;4.87;;
25982;SDS011;13773;48.868;10.730;2023-10-09T10:04:54;11.67;;;4.60;;
25982;SDS011;13773;48.868;10.730;2023-10-09T10:07:24;15.20;;;4.90;;
25982;SDS011;13773;48.868;10.730;2023-10-09T10:09:53;17.10;;;5.23;;
25982;SDS011;13773;48.868;10.730;2023-10-09T10:15:53;16.10;;;4.57;;
25982;SDS011;13773;48.868;10.730;2023-10-09T10:18:24;15.60;;;4.90;;
25982;SDS011;13773;48.868;10.730;2023-10-09T10:23:41;15.07;;;4.47;;
25982;SDS011;13773;48.868;10.730;2023-10-09T10:34:25;9.43;;;4.10;;
25982;SDS011;13773;48.868;10.730;2023-10-09T10:36:52;16.10;;;4.13;;
25982;SDS011;13773;48.868;10.730;2023-10-09T10:39:25;23.73;;;4.87;;
25982;SDS011;13773;48.868;10.730;2023-10-09T10:42:10;16.37;;;4.47;;
25982;SDS011;13773;48.868;10.730;2023-10-09T10:44:56;16.63;;;4.13;;
25982;SDS011;13773;48.868;10.730;2023-10-09T10:47:25;14.27;;;4.37;;
25982;SDS011;13773;48.868;10.730;2023-10-09T10:49:59;13.13;;;4.30;;
25982;SDS011;13773;48.868;10.730;2023-10-09T10:52:36;10.40;;;3.57;;
25982;SDS011;13773;48.868;10.730;2023-10-09T10:55:07;16.17;;;4.97;;
25982;SDS011;13773;48.868;10.730;2023-10-09T10:57:55;10.97;;;4.33;;
25982;SDS011;13773;48.868;10.730;2023-10-09T11:00:25;17.57;;;4.57;;
25982;SDS011;13773;48.868;10.730;2023-10-09T11:03:16;10.63;;;4.17;;
25982;SDS011;13773;48.868;10.730;2023-10-09T11:05:45;11.97;;;4.10;;
25982;SDS011;13773;48.868;10.730;2023-10-09T11:08:16;18.87;;;4.63;;
25982;SDS011;13773;48.868;10.730;2023-10-09T11:10:48;14.60;;;3.67;;
25982;SDS011;13773;48.868;10.730;2023-10-09T11:13:21;12.40;;;4.07;;
25982;SDS011;13773;48.868;10.730;2023-10-09T11:16:17;11.53;;;4.00;;
25982;SDS011;13773;48.868;10.730;2023-10-09T11:19:07;10.47;;;3.67;;
25982;SDS011;13773;48.868;10.730;2023-10-09T11:21:53;13.03;;;4.40;;
25982;SDS011;13773;48.868;10.730;2023-10-09T11:24:26;15.73;;;4.70;;
25982;SDS011;13773;48.868;10.730;2023-10-09T11:26:58;16.23;;;4.50;;
25982;SDS011;13773;48.868;10.730;2023-10-09T11:29:30;16.00;;;5.17;;
25982;SDS011;13773;48.868;10.730;2023-10-09T11:32:09;12.97;;;4.07;;
25982;SDS011;13773;48.868;10.730;2023-10-09T11:34:47;16.57;;;4.50;;
25982;SDS011;13773;48.868;10.730;2023-10-09T11:37:17;17.10;;;5.13;;
25982;SDS011;13773;48.868;10.730;2023-10-09T11:40:05;12.63;;;3.80;;
25982;SDS011;13773;48.868;10.730;2023-10-09T11:42:49;13.57;;;4.10;;
25982;SDS011;13773;48.868;10.730;2023-10-09T11:45:25;16.90;;;4.10;;
25982;SDS011;13773;48.868;10.730;2023-10-09T11:47:57;15.13;;;4.13;;
25982;SDS011;13773;48.868;10.730;2023-10-09T11:50:46;12.73;;;3.63;;
25982;SDS011;13773;48.868;10.730;2023-10-09T11:53:18;12.53;;;4.20;;
25982;SDS011;13773;48.868;10.730;2023-10-09T11:55:48;11.13;;;3.40;;
25982;SDS011;13773;48.868;10.730;2023-10-09T11:58:15;13.67;;;4.47;;
25982;SDS011;13773;48.868;10.730;2023-10-09T12:00:54;12.10;;;4.30;;
25982;SDS011;13773;48.868;10.730;2023-10-09T12:03:24;11.77;;;3.73;;
25982;SDS011;13773;48.868;10.730;2023-10-09T12:05:57;16.67;;;4.77;;
25982;SDS011;13773;48.868;10.730;2023-10-09T12:08:33;11.93;;;3.87;;
25982;SDS011;13773;48.868;10.730;2023-10-09T12:11:00;15.10;;;4.50;;
25982;SDS011;13773;48.868;10.730;2023-10-09T12:13:33;12.97;;;4.37;;
25982;SDS011;13773;48.868;10.730;2023-10-09T12:15:59;13.03;;;3.60;;
25982;SDS011;13773;48.868;10.730;2023-10-09T12:18:24;14.27;;;4.63;;
25982;SDS011;13773;48.868;10.730;2023-10-09T12:20:50;13.47;;;4.57;;
25982;SDS011;13773;48.868;10.730;2023-10-09T12:23:20;10.63;;;4.30;;
25982;SDS011;13773;48.868;10.730;2023-10-09T12:25:50;12.93;;;4.73;;
25982;SDS011;13773;48.868;10.730;2023-10-09T12:28:19;10.53;;;3.20;;
25982;SDS011;13773;48.868;10.730;2023-10-09T12:30:46;18.27;;;4.23;;
25982;SDS011;13773;48.868;10.730;2023-10-09T12:33:16;17.57;;;4.23;;
25982;SDS011;13773;48.868;10.730;2023-10-09T12:35:43;15.90;;;3.93;;
25982;SDS011;13773;48.868;10.730;2023-10-09T12:38:12;14.07;;;4.13;;
25982;SDS011;13773;48.868;10.730;2023-10-09T12:40:43;13.37;;;4.03;;
25982;SDS011;13773;48.868;10.730;2023-10-09T12:43:18;21.47;;;5.17;;
25982;SDS011;13773;48.868;10.730;2023-10-09T12:45:47;15.97;;;3.90;;
25982;SDS011;13773;48.868;10.730;2023-10-09T12:48:13;20.03;;;5.40;;
25982;SDS011;13773;48.868;10.730;2023-10-09T12:50:39;16.17;;;4.50;;
25982;SDS011;13773;48.868;10.730;2023-10-09T12:53:09;15.60;;;5.07;;
25982;SDS011;13773;48.868;10.730;2023-10-09T12:55:36;12.87;;;3.70;;
25982;SDS011;13773;48.868;10.730;2023-10-09T12:58:05;17.03;;;4.60;;
25982;SDS011;13773;48.868;10.730;2023-10-09T13:00:35;12.20;;;4.10;;
25982;SDS011;13773;48.868;10.730;2023-10-09T13:03:09;13.57;;;3.90;;
25982;SDS011;13773;48.868;10.730;2023-10-09T13:05:43;14.10;;;4.40;;
25982;SDS011;13773;48.868;10.730;2023-10-09T13:08:23;15.70;;;4.37;;
25982;SDS011;13773;48.868;10.730;2023-10-09T13:10:56;12.87;;;4.30;;
25982;SDS011;13773;48.868;10.730;2023-10-09T13:13:29;10.47;;;3.73;;
25982;SDS011;13773;48.868;10.730;2023-10-09T13:16:19;12.80;;;4.30;;
25982;SDS011;13773;48.868;10.730;2023-10-09T13:18:52;13.03;;;4.70;;
25982;SDS011;13773;48.868;10.730;2023-10-09T13:21:23;11.88;;;4.15;;
25982;SDS011;13773;48.868;10.730;2023-10-09T13:23:51;11.97;;;3.87;;
25982;SDS011;13773;48.868;10.730;2023-10-09T13:26:19;9.80;;;4.07;;
25982;SDS011;13773;48.868;10.730;2023-10-09T13:28:53;13.77;;;4.80;;
25982;SDS011;13773;48.868;10.730;2023-10-09T13:31:20;14.93;;;4.80;;
25982;SDS011;13773;48.868;10.730;2023-10-09T13:33:50;12.90;;;4.40;;
25982;SDS011;13773;48.868;10.730;2023-10-09T13:36:21;13.40;;;4.40;;
25982;SDS011;13773;48.868;10.730;2023-10-09T13:39:03;16.40;;;4.45;;
25982;SDS011;13773;48.868;10.730;2023-10-09T13:41:55;14.75;;;4.82;;
25982;SDS011;13773;48.868;10.730;2023-10-09T13:44:23;13.57;;;4.00;;
25982;SDS011;13773;48.868;10.730;2023-10-09T13:46:56;13.00;;;5.40;;
25982;SDS011;13773;48.868;10.730;2023-10-09T13:49:23;11.57;;;5.40;;
25982;SDS011;13773;48.868;10.730;2023-10-09T13:51:55;14.80;;;6.07;;
25982;SDS011;13773;48.868;10.730;2023-10-09T13:54:22;11.67;;;4.37;;
25982;SDS011;13773;48.868;10.730;2023-10-09T13:56:57;12.97;;;4.00;;
25982;SDS011;13773;48.868;10.730;2023-10-09T13:59:23;16.10;;;4.63;;
25982;SDS011;13773;48.868;10.730;2023-10-09T14:01:52;9.93;;;4.40;;
25982;SDS011;13773;48.868;10.730;2023-10-09T14:04:22;12.60;;;4.60;;
25982;SDS011;13773;48.868;10.730;2023-10-09T14:06:48;11.57;;;4.47;;
25982;SDS011;13773;48.868;10.730;2023-10-09T14:09:24;11.20;;;4.13;;
25982;SDS011;13773;48.868;10.730;2023-10-09T14:12:04;10.17;;;4.40;;
25982;SDS011;13773;48.868;10.730;2023-10-09T14:17:06;19.03;;;4.43;;
25982;SDS011;13773;48.868;10.730;2023-10-09T14:19:57;18.17;;;4.83;;
25982;SDS011;13773;48.868;10.730;2023-10-09T14:22:41;13.67;;;4.77;;
25982;SDS011;13773;48.868;10.730;2023-10-09T14:25:07;14.43;;;4.63;;
25982;SDS011;13773;48.868;10.730;2023-10-09T14:27:40;15.57;;;5.10;;
25982;SDS011;13773;48.868;10.730;2023-10-09T14:30:06;14.37;;;4.73;;
25982;SDS011;13773;48.868;10.730;2023-10-09T14:32:38;15.97;;;4.87;;
25982;SDS011;13773;48.868;10.730;2023-10-09T14:35:13;11.67;;;4.40;;
25982;SDS011;13773;48.868;10.730;2023-10-09T14:37:39;9.10;;;4.17;;
25982;SDS011;13773;48.868;10.730;2023-10-09T14:40:05;15.87;;;4.23;;
25982;SDS011;13773;48.868;10.730;2023-10-09T14:42:38;13.53;;;4.30;;
25982;SDS011;13773;48.868;10.730;2023-10-09T14:45:10;17.93;;;4.60;;
25982;SDS011;13773;48.868;10.730;2023-10-09T14:47:40;17.23;;;5.00;;
25982;SDS011;13773;48.868;10.730;2023-10-09T14:50:12;18.87;;;5.30;;
25982;SDS011;13773;48.868;10.730;2023-10-09T14:52:38;18.80;;;5.00;;
25982;SDS011;13773;48.868;10.730;2023-10-09T14:55:05;18.97;;;5.83;;
25982;SDS011;13773;48.868;10.730;2023-10-09T14:57:31;15.20;;;4.87;;
25982;SDS011;13773;48.868;10.730;2023-10-09T15:00:02;16.60;;;5.07;;
25982;SDS011;13773;48.868;10.730;2023-10-09T15:02:38;22.10;;;6.03;;
25982;SDS011;13773;48.868;10.730;2023-10-09T15:05:04;20.97;;;5.53;;
25982;SDS011;13773;48.868;10.730;2023-10-09T15:07:33;14.10;;;4.70;;
25982;SDS011;13773;48.868;10.730;2023-10-09T15:09:58;17.20;;;4.87;;
25982;SDS011;13773;48.868;10.730;2023-10-09T15:12:29;15.93;;;4.77;;
25982;SDS011;13773;48.868;10.730;2023-10-09T15:14:54;13.30;;;4.93;;
25982;SDS011;13773;48.868;10.730;2023-10-09T15:17:21;15.27;;;4.87;;
25982;SDS011;13773;48.868;10.730;2023-10-09T15:19:47;10.10;;;4.53;;
25982;SDS011;13773;48.868;10.730;2023-10-09T15:22:13;13.70;;;5.50;;
25982;SDS011;13773;48.868;10.730;2023-10-09T15:24:39;17.37;;;4.90;;
25982;SDS011;13773;48.868;10.730;2023-10-09T15:27:05;12.97;;;5.07;;
25982;SDS011;13773;48.868;10.730;2023-10-09T15:29:31;14.90;;;5.43;;
25982;SDS011;13773;48.868;10.730;2023-10-09T15:31:58;12.87;;;4.67;;
25982;SDS011;13773;48.868;10.730;2023-10-09T15:34:30;11.53;;;4.53;;
25982;SDS011;13773;48.868;10.730;2023-10-09T15:37:02;12.73;;;4.80;;
25982;SDS011;13773;48.868;10.730;2023-10-09T15:39:29;15.47;;;4.60;;
25982;SDS011;13773;48.868;10.730;2023-10-09T15:41:56;12.90;;;4.83;;